createdAt,value
2018-11-14T12:12:12.830Z,3.67
2018-11-14T12:22:22.043Z,4.23
2018-11-14T12:32:31.215Z,4.13
2018-11-14T12:42:40.681Z,3.70
2018-11-14T12:52:49.890Z,4.07
2018-11-14T13:02:58.952Z,3.73
2018-11-14T13:13:09.318Z,3.90
2018-11-14T13:23:19.569Z,4.27
2018-11-14T13:33:28.636Z,3.60
2018-11-14T13:43:38.432Z,3.97
2018-11-14T13:53:47.475Z,4.20
2018-11-14T14:03:56.632Z,4.63
2018-11-14T14:14:11.549Z,3.80
2018-11-14T14:24:20.794Z,4.50
2018-11-14T14:34:29.825Z,3.83
2018-11-14T14:44:39.106Z,3.80
2018-11-14T14:54:48.288Z,5.50
2018-11-14T15:04:57.385Z,14.93
2018-11-14T15:15:27.791Z,18.30
2018-11-14T15:25:37.072Z,18.53
2018-11-14T15:35:46.131Z,17.63
2018-11-14T15:45:55.246Z,17.60
2018-11-14T15:56:04.309Z,17.27
2018-11-14T16:06:13.387Z,19.33
2018-11-14T16:16:23.088Z,18.87
2018-11-14T16:26:32.076Z,18.20
2018-11-14T16:36:41.111Z,18.17
2018-11-14T16:46:51.929Z,16.03
2018-11-14T16:57:01.038Z,15.93
2018-11-14T17:07:11.067Z,16.07
2018-11-14T17:17:20.134Z,14.00
2018-11-14T17:27:29.243Z,14.63
2018-11-14T17:37:39.070Z,12.50
2018-11-14T17:47:48.592Z,11.40
2018-11-14T17:57:57.513Z,10.33
2018-11-14T18:08:06.512Z,11.53
2018-11-14T18:18:15.420Z,10.90
2018-11-14T18:28:24.565Z,9.53
2018-11-14T18:38:33.597Z,9.40
2018-11-14T18:48:42.535Z,9.30
2018-11-14T18:58:51.571Z,9.53
2018-11-14T19:09:00.646Z,9.07
2018-11-14T19:19:09.861Z,10.80
2018-11-14T19:29:19.076Z,10.20
2018-11-14T19:39:28.175Z,8.93
2018-11-14T19:49:37.225Z,9.80
2018-11-14T19:59:46.348Z,8.60
2018-11-14T20:09:55.286Z,10.03
2018-11-14T20:20:05.259Z,9.70
2018-11-14T20:30:18.037Z,9.40
2018-11-14T20:40:28.200Z,10.50
2018-11-14T20:50:37.237Z,11.47
2018-11-14T21:00:46.301Z,10.57
2018-11-14T21:10:55.266Z,11.23
2018-11-14T21:21:06.985Z,12.80
2018-11-14T21:31:16.299Z,12.27
2018-11-14T21:41:27.914Z,11.83
2018-11-14T21:51:37.019Z,12.80
2018-11-14T22:01:46.009Z,12.70
2018-11-14T22:11:55.161Z,13.60
2018-11-14T22:22:04.609Z,13.63
2018-11-14T22:32:13.700Z,13.23
2018-11-14T22:42:23.345Z,13.70
2018-11-14T22:52:32.329Z,15.00
2018-11-14T23:02:41.353Z,16.30
2018-11-14T23:12:53.869Z,16.83
2018-11-14T23:23:02.910Z,18.17
2018-11-14T23:33:11.936Z,19.83
2018-11-14T23:43:23.807Z,21.23
2018-11-14T23:53:33.485Z,21.63
